Kaihou Maru — JD2578 — position and weather

sailwx.info

Track history (hours):
 
Tides and Currents Weather Stations Pressure Air Temp Water Temp Dewpoint Dewpoint Depression Visibility Wind Speed Wind Dir Waves Ship Positions

Kaihou Maru

Last reported at 2017-Nov-19 23:19 UTC. Time now 2017-Nov-21 15:45 UTC.
Position N 35°33' E 140°05'.

Length 68 m; draft 4.2 m.

Type: Tanker. MMSI: 431000443.

Date/timePositionNaut miles runAvg speedWind from/ knotsBaromVisibWave heightAir tempDewpointWater temp
2017-Nov-19 23:19N 35°33' E 140°05'4 8.1
2017-Nov-19 22:50N 35°33' E 140°00'4 9.7
2017-Nov-19 22:28N 35°30' E 139°57'2 4.4
2017-Nov-19 22:01N 35°29' E 139°55'0 0.0
2017-Nov-19 21:22N 35°29' E 139°55'0 0.0
2017-Nov-19 20:52N 35°29' E 139°55'0 0.0
2017-Nov-19 20:28N 35°29' E 139°55'0 0.0
2017-Nov-19 19:58N 35°29' E 139°55'0 0.0
2017-Nov-19 19:28N 35°29' E 139°55'0 0.0
2017-Nov-19 18:55N 35°29' E 139°55'0 0.0
2017-Nov-19 18:22N 35°29' E 139°55'0 0.0
2017-Nov-19 17:58N 35°29' E 139°55'0 0.0
2017-Nov-19 17:28N 35°29' E 139°55'0 0.0
2017-Nov-19 16:58N 35°29' E 139°55'0 0.0
2017-Nov-19 16:28N 35°29' E 139°55'0 0.0
2017-Nov-19 15:58N 35°29' E 139°55'0 0.0
2017-Nov-19 15:28N 35°29' E 139°55'0 0.0
2017-Nov-19 14:55N 35°29' E 139°55'0 0.0
2017-Nov-19 14:28N 35°29' E 139°55'0 0.0
2017-Nov-19 13:55N 35°29' E 139°55'0 0.0
2017-Nov-19 13:28N 35°29' E 139°55'0 0.0
2017-Nov-19 12:55N 35°29' E 139°55'0 0.0
2017-Nov-19 12:25N 35°29' E 139°55'0 0.0
2017-Nov-19 11:55N 35°29' E 139°55'0 0.1
2017-Nov-19 11:28N 35°29' E 139°55'0 0.2
2017-Nov-19 10:52N 35°29' E 139°55'0 0.0
2017-Nov-19 03:46N 35°29' E 139°55'0 0.0
2017-Nov-19 02:49N 35°29' E 139°55'0 0.0
2017-Nov-19 01:16N 35°29' E 139°55'0 0.0
2017-Nov-19 00:58N 35°29' E 139°55'0 0.0
2017-Nov-19 00:22N 35°29' E 139°55'0 0.0
2017-Nov-18 19:13N 35°29' E 139°55'2 3.6
2017-Nov-18 18:45N 35°29' E 139°53'311.2
2017-Nov-18 18:30N 35°27' E 139°50'611.8
2017-Nov-18 18:00N 35°23' E 139°46'511.0
2017-Nov-18 17:30N 35°17' E 139°46'611.2
2017-Nov-18 16:59N 35°11' E 139°47'511.0
2017-Nov-18 16:30N 35°06' E 139°45'510.3
2017-Nov-18 16:00N 35°02' E 139°41'11 0.4
2017-Nov-17 10:01N 34°60' E 139°27'013.0
2017-Nov-17 10:00N 34°60' E 139°27'612.6
2017-Nov-17 09:30N 35°03' E 139°34'713.1
2017-Nov-17 09:00N 35°06' E 139°41'612.5
2017-Nov-17 08:30N 35°11' E 139°45'612.6
2017-Nov-17 08:00N 35°18' E 139°44'612.5
2017-Nov-17 07:30N 35°24' E 139°43'612.6
2017-Nov-17 07:00N 35°28' E 139°49'  
2017-Nov-12 23:14N 35°33' E 140°05'8 0.2
2017-Nov-11 05:24N 35°35' E 139°55'4 0.2
2017-Nov-10 08:28N 35°33' E 139°59'  
Track history (hours):
 
Tides and Currents Weather Stations Pressure Air Temp Water Temp Dewpoint Dewpoint Depression Visibility Wind Speed Wind Dir Waves Ship Positions

Kaihou Maru

Last reported at 2017-Nov-19 23:19 UTC. Time now 2017-Nov-21 15:45 UTC.
Position N 35°33' E 140°05'.

Length 68 m; draft 4.2 m.

Type: Tanker. MMSI: 431000443.

Date/timePositionNaut miles runAvg speedWind from/ knotsBaromVisibWave heightAir tempDewpointWater temp
2017-Nov-19 23:19N 35°33' E 140°05'4 8.1
2017-Nov-19 22:50N 35°33' E 140°00'4 9.7
2017-Nov-19 22:28N 35°30' E 139°57'2 4.4
2017-Nov-19 22:01N 35°29' E 139°55'0 0.0
2017-Nov-19 21:22N 35°29' E 139°55'0 0.0
2017-Nov-19 20:52N 35°29' E 139°55'0 0.0
2017-Nov-19 20:28N 35°29' E 139°55'0 0.0
2017-Nov-19 19:58N 35°29' E 139°55'0 0.0
2017-Nov-19 19:28N 35°29' E 139°55'0 0.0
2017-Nov-19 18:55N 35°29' E 139°55'0 0.0
2017-Nov-19 18:22N 35°29' E 139°55'0 0.0
2017-Nov-19 17:58N 35°29' E 139°55'0 0.0
2017-Nov-19 17:28N 35°29' E 139°55'0 0.0
2017-Nov-19 16:58N 35°29' E 139°55'0 0.0
2017-Nov-19 16:28N 35°29' E 139°55'0 0.0
2017-Nov-19 15:58N 35°29' E 139°55'0 0.0
2017-Nov-19 15:28N 35°29' E 139°55'0 0.0
2017-Nov-19 14:55N 35°29' E 139°55'0 0.0
2017-Nov-19 14:28N 35°29' E 139°55'0 0.0
2017-Nov-19 13:55N 35°29' E 139°55'0 0.0
2017-Nov-19 13:28N 35°29' E 139°55'0 0.0
2017-Nov-19 12:55N 35°29' E 139°55'0 0.0
2017-Nov-19 12:25N 35°29' E 139°55'0 0.0
2017-Nov-19 11:55N 35°29' E 139°55'0 0.1
2017-Nov-19 11:28N 35°29' E 139°55'0 0.2
2017-Nov-19 10:52N 35°29' E 139°55'0 0.0
2017-Nov-19 03:46N 35°29' E 139°55'0 0.0
2017-Nov-19 02:49N 35°29' E 139°55'0 0.0
2017-Nov-19 01:16N 35°29' E 139°55'0 0.0
2017-Nov-19 00:58N 35°29' E 139°55'0 0.0
2017-Nov-19 00:22N 35°29' E 139°55'0 0.0
2017-Nov-18 19:13N 35°29' E 139°55'2 3.6
2017-Nov-18 18:45N 35°29' E 139°53'311.2
2017-Nov-18 18:30N 35°27' E 139°50'611.8
2017-Nov-18 18:00N 35°23' E 139°46'511.0
2017-Nov-18 17:30N 35°17' E 139°46'611.2
2017-Nov-18 16:59N 35°11' E 139°47'511.0
2017-Nov-18 16:30N 35°06' E 139°45'510.3
2017-Nov-18 16:00N 35°02' E 139°41'11 0.4
2017-Nov-17 10:01N 34°60' E 139°27'013.0
2017-Nov-17 10:00N 34°60' E 139°27'612.6
2017-Nov-17 09:30N 35°03' E 139°34'713.1
2017-Nov-17 09:00N 35°06' E 139°41'612.5
2017-Nov-17 08:30N 35°11' E 139°45'612.6
2017-Nov-17 08:00N 35°18' E 139°44'612.5
2017-Nov-17 07:30N 35°24' E 139°43'612.6
2017-Nov-17 07:00N 35°28' E 139°49'  
2017-Nov-12 23:14N 35°33' E 140°05'8 0.2
2017-Nov-11 05:24N 35°35' E 139°55'4 0.2
2017-Nov-10 08:28N 35°33' E 139°59'  

Dump ship's entire track history